Accueil
METAR-TAF:

METAR-TAF

Aéroports :

Aéroport international de Tabarka-Aïn Draham

Tabarka, Tunisie

latitude: 36-57N, longitude: 008-45E, altitude: 20 m

Observation

Le bulletin a été fait il y a 36 minutes, à 08:00 UTC
Vent 7 kt de ouest, variant entre sud-ouest et ouest/nord-ouest
Température 22°C
Humidité 50%
Pression 1016 hPa
Visibilité 10 km ou plus
Quelques nuages à une hauteur de 2000 ft

METAR: DTKA 290800Z 27007KT 230V300 9999 FEW020 22/11 Q1016 NOSIG

Heure: 09:36 (08:36 UTC)

Prévision

Le bulletin a été fait il y a 2 heures et 36 minutes, à 06:00 UTC
Prévision valable du 29 à 07 UTC au 29 à 16 UTC
Vent 5 kt de est
Visibilité 10 km ou plus
Quelques nuages à une hauteur de 2000 ft

TAF: DTKA 290600Z 2907/2916 09005KT 9999 FEW020

Observations et prévisions météorologiques de plus de 4000 aéroports (messages METAR et TAF).

Les stations disponibles sont représentées par des disques jaunes et rouges sur la carte.

Passer la souris dessus pour voir le nom de la station.

Cliquer dessus pour voir les observations et prévisions météorologiques.

Pour changer de carte: cliquez sur les boutons verts avec une croix noire pour zoomer, sur le bouton vert avec un tiret pour effectuer un zoom arrière, ou sur les flèches vertes pour les cartes adjacentes.


METAR-TAF: